LKTB/BRQ METAR and TAF weather

Enter ICAO airport designator
Station Type Date Time Source
LKTB METAR 2019/12/06 09:00 UTC NOAA

LKTB 060900Z 18008KT 7000 OVC007 M01/M03 Q1023 NOSIG


Station Type Date Time Source
LKTB Decoded METAR 2019/12/06 09:00 UTC NOAA

Brno / Turany, Czech Republic (LKTB) 49-09N 016-42E 246M
Dec 06, 2019 - 04:00 AM EST / 2019.12.06 0900 UTC
Wind: from the S (180 degrees) at 9 MPH (8 KT):0
Visibility: 4 mile(s):0
Sky conditions: overcast
Temperature: 30 F (-1 C)
Windchill: 21 F (-6 C):1
Dew Point: 26 F (-3 C)
Relative Humidity: 86%
Pressure (altimeter): 30.21 in. Hg (1023 hPa)
ob: LKTB 060900Z 18008KT 7000 OVC007 M01/M03 Q1023 NOSIG
cycle: 9

Station Type Date Time Source
LKTB TAF 2019/12/06 06:06 UTC NOAA

TAF LKTB 060500Z 0606/0712 18006KT 9000 OVC012
TEMPO 0606/0612 OVC007 PROB30
TEMPO 0606/0608 4000 BR PROB30
TEMPO 0612/0619 9999 BKN016
BECMG 0622/0700 4000 BR OVC007
TEMPO 0703/0706 2500 BR OVC004
TEMPO 0706/0710 2500 FZRA BR OVC004
BECMG 0710/0712 7000 BKN014

Example: see airport list